Flight Track Log - Related Links

Times and Time Zones

All times are in EST time to prevent confusion due to time zone crossing. See the EJA951 flight status page for this flight to view local times or setup timezone preferences in your user account.

Time Position Orientation Groundspeed Altitude Reporting Facility
EST Latitude Longitude Course Direction KTS MPH feet Rate Location/Type
Tue 04:27:43 PM 36.1000 -86.6833 161° South 172 198 1,200  Level Nashville TRACON
Tue 04:30:00 PM 35.9669 -86.6256 161° South 235 270 41,000 3,442 Climbing Memphis Center
Tue 04:31:00 PM 35.8881 -86.5728 152° Southeast 292 336 12,500 -13,300 Descending Memphis Center
Tue 04:32:00 PM 35.7925 -86.5106 152° Southeast 360 414 14,400 1,350 Climbing Memphis Center
Tue 04:33:00 PM 35.6883 -86.4539 156° South 396 456 15,200 1,500 Climbing Memphis Center
Tue 04:34:00 PM 35.5836 -86.4333 171° South 396 456 17,400 1,460 Climbing Memphis Center
Tue 04:36:09 PM 35.3664 -86.3844 170° South 380 437 19,800 1,270 Climbing Atlanta Center
Tue 04:37:09 PM 35.2650 -86.3306 157° South 397 457 21,400 1,300 Climbing Atlanta Center
Tue 04:38:09 PM 35.1597 -86.2692 155° Southeast 411 473 22,400 1,050 Climbing Atlanta Center
Tue 04:39:09 PM 35.0522 -86.2106 156° South 417 480 23,500 1,300 Climbing Atlanta Center
Tue 04:40:09 PM 34.9406 -86.1594 159° South 423 487 25,000 1,250 Climbing Atlanta Center
Tue 04:41:09 PM 34.8164 -86.1058 160° South 428 493 26,000 1,000 Climbing Atlanta Center
Tue 04:42:09 PM 34.7003 -86.0447 157° South 435 501 27,000 500 Climbing Atlanta Center
Tue 04:43:09 PM 34.5956 -85.9439 142° Southeast 450 518 27,000  Level Atlanta Center
Tue 04:44:09 PM 34.4886 -85.8381 141° Southeast 479 551 27,000  Level Atlanta Center
Tue 04:45:09 PM 34.3753 -85.7325 142° Southeast 505 581 27,000  Level Atlanta Center
Tue 04:46:09 PM 34.2642 -85.6272 142° Southeast 510 587 27,000 150 Level Atlanta Center
Tue 04:47:09 PM 34.1442 -85.5297 146° Southeast 518 596 27,300 850 Climbing Atlanta Center
Tue 04:48:09 PM 34.0175 -85.4825 163° South 484 557 28,700 1,450 Climbing Atlanta Center
Tue 04:49:09 PM 33.8906 -85.4403 165° South 474 545 30,200 1,250 Climbing Atlanta Center
Tue 04:50:09 PM 33.7617 -85.4006 166° South 468 539 31,200 950 Climbing Atlanta Center
Tue 04:51:09 PM 33.6453 -85.3589 163° South 474 545 32,100 950 Climbing Atlanta Center
Tue 04:52:09 PM 33.5142 -85.3194 166° South 474 545 33,100 1,050 Climbing Atlanta Center
Tue 04:53:09 PM 33.3811 -85.2778 165° South 485 558 34,200 1,300 Climbing Atlanta Center
Tue 04:54:09 PM 33.2519 -85.2336 164° South 490 564 35,700 1,500 Climbing Atlanta Center
Tue 04:55:09 PM 33.1208 -85.1922 165° South 484 557 37,200 1,500 Climbing Atlanta Center
Tue 04:56:09 PM 32.9897 -85.1508 165° South 491 565 38,700 1,500 Climbing Atlanta Center
Tue 04:57:09 PM 32.8650 -85.1097 165° South 480 552 40,200 1,150 Climbing Atlanta Center
Tue 04:58:09 PM 32.7339 -85.0611 163° South 485 558 41,000 400 Climbing Atlanta Center
Tue 04:59:09 PM 32.5944 -85.0128 164° South 498 573 41,000  Level Atlanta Center
Tue 05:00:09 PM 32.4467 -84.9644 165° South 503 579 41,000  Level Atlanta Center
Tue 05:01:09 PM 32.3111 -84.9211 165° South 510 587 41,000  Level Atlanta Center
Tue 05:02:09 PM 32.1883 -84.8856 166° South 505 581 41,000  Level Atlanta Center
Tue 05:03:09 PM 32.0528 -84.8450 166° South 505 581 41,000  Level Atlanta Center
Tue 05:04:42 PM 31.8269 -84.7731 165° South 522 601 41,000  Level Jacksonville Center
Tue 05:05:42 PM 31.6919 -84.7286 164° South 512 589 41,000  Level Jacksonville Center
Tue 05:06:42 PM 31.5547 -84.6869 165° South 507 583 41,000  Level Jacksonville Center
Tue 05:07:42 PM 31.4300 -84.6506 166° South 513 590 41,000  Level Jacksonville Center
Tue 05:08:42 PM 31.2969 -84.5994 162° South 508 585 41,000  Level Jacksonville Center
Tue 05:09:42 PM 31.1747 -84.5194 151° Southeast 508 585 41,000  Level Jacksonville Center
Tue 05:10:42 PM 31.0506 -84.4372 150° Southeast 503 579 41,000  Level Jacksonville Center
Tue 05:11:42 PM 30.9242 -84.3600 152° Southeast 508 585 41,000  Level Jacksonville Center
Tue 05:12:42 PM 30.8019 -84.2783 150° Southeast 508 585 41,000  Level Jacksonville Center
Tue 05:13:42 PM 30.6753 -84.1992 152° Southeast 508 585 41,000  Level Jacksonville Center
Tue 05:14:42 PM 30.5447 -84.1156 151° Southeast 501 577 41,000  Level Jacksonville Center
Tue 05:15:42 PM 30.4222 -84.0344 150° Southeast 501 577 41,000  Level Jacksonville Center
Tue 05:16:42 PM 30.2975 -83.9561 152° Southeast 496 571 41,000  Level Jacksonville Center
Tue 05:17:42 PM 30.1731 -83.8800 152° Southeast 496 571 41,000  Level Jacksonville Center
Tue 05:18:42 PM 30.0483 -83.7997 151° Southeast 502 578 41,000  Level Jacksonville Center
Tue 05:19:42 PM 29.9236 -83.7217 152° Southeast 502 578 41,000  Level Jacksonville Center
Tue 05:20:42 PM 29.8008 -83.6467 152° Southeast 502 578 41,000  Level Jacksonville Center
Tue 05:21:42 PM 29.6761 -83.5692 152° Southeast 508 585 41,000  Level Jacksonville Center
Tue 05:22:42 PM 29.5511 -83.4917 152° Southeast 508 585 41,000  Level Jacksonville Center
Tue 05:23:42 PM 29.4261 -83.4147 152° Southeast 508 585 41,000  Level Jacksonville Center
Tue 05:24:42 PM 29.3053 -83.3378 151° Southeast 508 585 41,000  Level Jacksonville Center
Tue 05:25:42 PM 29.1950 -83.2683 151° Southeast 501 577 41,000  Level Jacksonville Center
Tue 05:26:42 PM 29.0719 -83.1919 152° Southeast 501 577 41,000  Level Jacksonville Center
Tue 05:27:42 PM 28.9492 -83.1181 152° Southeast 496 571 41,000  Level Jacksonville Center
Tue 05:28:42 PM 28.8261 -83.0419 152° Southeast 496 571 41,000  Level Jacksonville Center
Tue 05:29:42 PM 28.7031 -82.9658 152° Southeast 496 571 41,000  Level Jacksonville Center
Tue 05:30:42 PM 28.5819 -82.8925 152° Southeast 496 571 41,000  Level Jacksonville Center
Tue 05:31:42 PM 28.4608 -82.8194 152° Southeast 496 571 41,000  Level Jacksonville Center
Tue 05:33:15 PM 28.2550 -82.6939 152° Southeast 519 597 41,000  Level Miami Center
Tue 05:34:15 PM 28.1308 -82.6192 152° Southeast 519 597 41,000  Level Miami Center
Tue 05:35:15 PM 28.0189 -82.5525 152° Southeast 519 597 41,000  Level Miami Center
Tue 05:36:15 PM 27.8897 -82.4944 158° South 512 589 41,000 -300 Level Miami Center
Tue 05:37:15 PM 27.7514 -82.5108 186° South 492 566 40,400 -1,150 Descending Miami Center
Tue 05:38:15 PM 27.6208 -82.5889 208° Southwest 515 593 38,700 -1,950 Descending Miami Center
Tue 05:39:15 PM 27.4797 -82.6753 209° Southwest 541 623 36,500 -2,100 Descending Miami Center
Tue 05:40:15 PM 27.3514 -82.7553 209° Southwest 541 623 34,500 -1,900 Descending Miami Center
Tue 05:41:15 PM 27.2261 -82.7583 181° South 520 598 32,700 -1,900 Descending Miami Center
Tue 05:42:15 PM 27.1192 -82.6642 142° Southeast 445 512 30,700 -1,950 Descending Miami Center
Tue 05:43:15 PM 27.0392 -82.5297 124° Southeast 447 514 28,800 -1,350 Descending Miami Center
Tue 05:44:15 PM 26.9628 -82.4003 123° Southeast 467 537 28,000 -400 Descending Miami Center
Tue 05:45:15 PM 26.8903 -82.2733 123° Southeast 487 560 28,000 -100 Level Miami Center
Tue 05:46:15 PM 26.8136 -82.1467 124° Southeast 492 566 27,800 -700 Descending Miami Center
Tue 05:47:15 PM 26.7389 -82.0175 123° Southeast 487 560 26,600 -1,350 Descending Miami Center
Tue 05:48:15 PM 26.6697 -81.9031 124° Southeast 479 551 25,100 -1,900 Descending Miami Center
Tue 05:49:15 PM 26.6064 -81.8006 125° Southeast 439 505 22,800 -2,200 Descending Miami Center
Tue 05:50:15 PM 26.5453 -81.6936 123° Southeast 416 479 20,700 -2,100 Descending Miami Center
Tue 05:51:15 PM 26.4900 -81.6008 124° Southeast 409 471 18,600 -1,850 Descending Miami Center
Tue 05:52:15 PM 26.4225 -81.4914 125° Southeast 392 451 17,000 -1,600 Descending Miami Center
Tue 05:53:15 PM 26.3611 -81.3892 124° Southeast 382 440 15,400 -1,800 Descending Miami Center
Tue 05:54:15 PM 26.2975 -81.2850 124° Southeast 382 440 13,400 -1,850 Descending Miami Center
Tue 05:55:15 PM 26.2417 -81.1925 124° Southeast 382 440 11,700 -1,550 Descending Miami Center
Tue 05:56:15 PM 26.1900 -81.1075 124° Southeast 360 414 10,300 -1,397 Descending Miami Center
Tue 05:56:28 PM 26.1756 -81.0931 138° Southeast 294 338 10,000 -1,179 Descending Miami Center
Tue 05:57:11 PM 26.1458 -81.0433 124° Southeast 275 316 9,200 -1,149 Descending Miami Center
Tue 05:57:15 PM 26.1461 -81.0364 87° East 297 342 9,100 -1,279 Descending Miami Center
Tue 05:58:12 PM 26.1039 -80.9703 125° Southeast 270 311 7,900 -1,100 Descending Miami Center
Tue 05:58:15 PM 26.1061 -80.9725 318° Northwest 284 327 8,000 -1,672 Climbing Miami Center
Tue 05:59:13 PM 26.0833 -80.8908 107° East 253 291 6,200 -1,700 Descending Miami Center
Tue 05:59:15 PM 26.0872 -80.8956 313° West 266 306 6,300 -245 Climbing Miami Center
Tue 06:00:02 PM 26.0767 -80.8306 100° East 252 290 6,000 -300 Descending Miami Center
Tue 06:00:15 PM 26.0789 -80.8189 78° East 254 292 6,000 -822 Level Miami Center
Tue 06:01:15 PM 26.0769 -80.7356 91° East 249 287 5,000 -496 Descending Miami Center
Tue 06:02:16 PM 26.0747 -80.6594 92° East 248 285 5,000  Level Miami Center
Tue 06:03:05 PM 26.0744 -80.5969 90° East 241 277 5,000  Level Miami Center
Tue 06:03:15 PM 26.0767 -80.5922 62° Northeast 242 278 5,000  Level Miami Center
Tue 06:04:06 PM 26.0761 -80.5228 90° East 240 276 5,000  Level Miami Center
Tue 06:04:15 PM 26.0783 -80.5183 61° Northeast 237 273 5,000 -197 Level Miami Center
Tue 06:05:07 PM 26.0756 -80.4606 93° East 176 203 4,800 -300 Descending Miami Center
Tue 06:05:15 PM 26.0800 -80.4558 44° Northeast 221 254 4,700 -787 Descending Miami Center
Tue 06:06:08 PM 26.0750 -80.4072 97° East 162 186 4,000 -800 Descending Miami Center
Tue 06:06:15 PM 26.0792 -80.4050 26° Northeast 187 215 3,900 -896 Descending Miami Center
Tue 06:07:15 PM 26.0742 -80.3494 96° East 170 196 3,000 -828 Descending Miami Center
Tue 06:08:11 PM 26.0775 -80.3033 85° East 160 184 2,300 -718 Descending Miami Center
Tue 06:09:12 PM 26.0744 -80.2547 94° East 161 185 1,600 -645 Descending Miami Center
Tue 06:10:12 PM 26.0753 -80.2153 89° East 110 127 1,000 -600 Descending Miami Center
Tue 06:12:00 PM 26.0667 -80.1500 180° South  Level FlightAware Approximate
Tue 06:19:00 PM 26.0726 -80.1527 180° South  Level Estimated

Login

Don't have an account? Register now (free) for customized features, flight alerts, and more!